Time;durP1;ratioP1;P1;durP2;ratioP2;P2;SDS_P1;SDS_P2;PMS_P1;PMS_P2;Temp;Humidity;BMP_temperature;BMP_pressure;BME280_temperature;BME280_humidity;BME280_pressure;Samples;Min_cycle;Max_cycle;Signal;HPM_P1;HPM_P2
2022/01/18 00:00:29;;;;;;;16.33;15.03;;;4.40;99.90;;;;;;5051798;28;20302;-77
2022/01/18 00:02:58;;;;;;;16.77;15.37;;;4.40;99.90;;;;;;5051982;28;20714;-78
2022/01/18 00:05:26;;;;;;;16.73;15.43;;;4.40;99.90;;;;;;5034140;28;20195;-78
2022/01/18 00:07:53;;;;;;;16.57;15.27;;;4.40;99.90;;;;;;5051686;28;20203;-77
2022/01/18 00:10:23;;;;;;;17.13;15.73;;;4.40;99.90;;;;;;5050726;28;20191;-77
2022/01/18 00:13:08;;;;;;;16.27;15.00;;;4.40;99.90;;;;;;5051782;28;20704;-78
2022/01/18 00:15:43;;;;;;;15.80;14.60;;;4.40;99.90;;;;;;5031269;28;20210;-77
2022/01/18 00:18:14;;;;;;;16.43;15.13;;;4.50;99.90;;;;;;5051326;28;20210;-76
2022/01/18 00:20:55;;;;;;;16.87;15.37;;;4.40;99.90;;;;;;5051583;28;20692;-78
2022/01/18 00:23:23;;;;;;;16.70;15.37;;;4.40;99.90;;;;;;5029666;28;20209;-78
2022/01/18 00:25:53;;;;;;;16.33;15.00;;;4.40;99.90;;;;;;5051815;28;20191;-77
2022/01/18 00:28:21;;;;;;;16.67;15.37;;;4.40;99.90;;;;;;5050030;28;20214;-77
2022/01/18 00:33:55;;;;;;;17.17;15.67;;;4.40;99.90;;;;;;5042119;28;20203;-77
2022/01/18 00:36:27;;;;;;;16.47;15.10;;;4.40;99.90;;;;;;5024557;28;20289;-76
2022/01/18 00:38:55;;;;;;;17.00;15.50;;;4.40;99.90;;;;;;5033208;28;20203;-78
2022/01/18 00:41:24;;;;;;;17.10;15.63;;;4.40;99.90;;;;;;5051113;28;20658;-77
2022/01/18 00:43:51;;;;;;;16.10;14.80;;;4.50;99.90;;;;;;5051487;28;20191;-77
2022/01/18 00:46:19;;;;;;;15.73;14.43;;;4.50;99.90;;;;;;5033620;28;20203;-77
2022/01/18 00:48:47;;;;;;;15.33;14.20;;;4.50;99.90;;;;;;5035966;28;20249;-77
2022/01/18 00:51:15;;;;;;;16.37;15.07;;;4.50;99.90;;;;;;5037291;28;20222;-78
2022/01/18 00:53:44;;;;;;;15.93;14.63;;;4.50;99.90;;;;;;5055287;28;20199;-77
2022/01/18 00:56:20;;;;;;;15.43;14.17;;;4.50;99.90;;;;;;5055324;28;20195;-77
2022/01/18 00:58:48;;;;;;;15.97;14.73;;;4.50;99.90;;;;;;5055168;28;20201;-76
2022/01/18 01:01:17;;;;;;;16.53;15.23;;;4.50;99.90;;;;;;5055165;28;20219;-76
2022/01/18 01:03:44;;;;;;;15.93;14.63;;;4.50;99.90;;;;;;5047180;28;20222;-76
2022/01/18 01:06:13;;;;;;;15.63;14.33;;;4.50;99.90;;;;;;5054979;28;20195;-77
2022/01/18 01:08:39;;;;;;;16.47;15.07;;;4.50;99.90;;;;;;5037079;28;20669;-78
2022/01/18 01:11:08;;;;;;;15.57;14.37;;;4.50;99.90;;;;;;5054799;28;20672;-76
2022/01/18 01:13:37;;;;;;;16.03;14.80;;;4.50;99.90;;;;;;5036997;28;20195;-76
2022/01/18 01:16:21;;;;;;;16.00;14.60;;;4.50;99.90;;;;;;5054996;28;20194;-77
2022/01/18 01:19:04;;;;;;;17.03;15.60;;;4.50;99.90;;;;;;5054804;28;20591;-77
2022/01/18 01:33:06;;;;;;;17.50;16.00;;;4.50;99.90;;;;;;5051237;28;20274;-77
2022/01/18 01:35:42;;;;;;;17.73;16.27;;;4.40;99.90;;;;;;5029949;28;20286;-78
2022/01/18 01:43:50;;;;;;;18.20;16.70;;;4.30;99.90;;;;;;5047852;28;20191;-78
2022/01/18 01:46:18;;;;;;;17.30;15.90;;;4.30;99.90;;;;;;5036565;28;20209;-77
2022/01/18 01:48:50;;;;;;;16.93;15.63;;;4.30;99.90;;;;;;5054341;28;20196;-77
2022/01/18 01:51:17;;;;;;;18.57;17.07;;;4.30;99.90;;;;;;5053951;28;20218;-78
2022/01/18 01:53:45;;;;;;;17.97;16.40;;;4.30;99.90;;;;;;5036293;28;20203;-77
2022/01/18 01:56:12;;;;;;;18.83;17.13;;;4.30;99.90;;;;;;5036371;28;20625;-77
2022/01/18 01:58:39;;;;;;;18.33;16.73;;;4.30;99.90;;;;;;5036222;28;20587;-77
2022/01/18 02:01:07;;;;;;;18.90;17.23;;;4.20;99.90;;;;;;5053463;28;20215;-76
2022/01/18 02:03:35;;;;;;;18.57;17.07;;;4.20;99.90;;;;;;5029033;28;20199;-76
2022/01/18 02:06:02;;;;;;;18.37;16.67;;;4.20;99.90;;;;;;5051390;28;20208;-77
2022/01/18 02:08:29;;;;;;;18.30;16.80;;;4.10;99.90;;;;;;5027827;28;20234;-77
2022/01/18 02:10:57;;;;;;;18.87;17.27;;;4.20;99.90;;;;;;5035893;28;20684;-77
2022/01/18 02:13:24;;;;;;;18.30;16.73;;;4.10;99.90;;;;;;5032334;28;20566;-78
2022/01/18 02:16:13;;;;;;;18.50;16.80;;;4.20;99.90;;;;;;5043799;28;20195;-76
2022/01/18 02:24:11;;;;;;;18.27;16.77;;;4.10;99.90;;;;;;5004998;28;20192;-76
2022/01/18 02:26:39;;;;;;;19.00;17.23;;;4.10;99.90;;;;;;5005700;28;20192;-77
2022/01/18 02:29:08;;;;;;;18.00;16.50;;;4.10;99.90;;;;;;5023543;28;20181;-80
2022/01/18 02:31:36;;;;;;;18.77;17.07;;;4.10;99.90;;;;;;5025927;28;20193;-78
2022/01/18 02:34:03;;;;;;;19.97;18.17;;;4.10;99.90;;;;;;5007994;28;20207;-77
2022/01/18 02:36:33;;;;;;;19.67;17.87;;;4.10;99.90;;;;;;5003722;28;20203;-79
2022/01/18 02:39:00;;;;;;;19.93;18.13;;;4.00;99.90;;;;;;5002884;28;20583;-77
2022/01/18 02:41:30;;;;;;;19.37;17.73;;;4.00;99.90;;;;;;5006123;28;20696;-78
2022/01/18 02:43:58;;;;;;;20.53;18.63;;;4.00;99.90;;;;;;5022736;28;20271;-77
2022/01/18 02:46:27;;;;;;;19.27;17.47;;;4.00;99.90;;;;;;5022279;28;20193;-77
2022/01/18 02:48:55;;;;;;;19.17;17.57;;;4.00;99.90;;;;;;5006967;28;20224;-76
2022/01/18 02:51:22;;;;;;;18.20;16.70;;;4.00;99.90;;;;;;5021269;28;20200;-77
2022/01/18 02:54:01;;;;;;;18.47;16.97;;;4.10;99.90;;;;;;5004690;28;20196;-76
2022/01/18 02:56:31;;;;;;;20.17;18.37;;;4.00;99.90;;;;;;5013538;28;20192;-77
2022/01/18 02:59:05;;;;;;;20.23;18.33;;;4.00;99.90;;;;;;5004713;28;20657;-77
2022/01/18 03:04:17;;;;;;;20.03;18.33;;;3.90;99.90;;;;;;5005913;28;20645;-77
2022/01/18 03:06:44;;;;;;;20.17;18.47;;;4.00;99.90;;;;;;5020449;28;20192;-77
2022/01/18 03:09:12;;;;;;;20.13;18.33;;;4.00;99.90;;;;;;5017478;28;20192;-78
2022/01/18 03:11:39;;;;;;;20.03;18.33;;;4.00;99.90;;;;;;5024673;28;20207;-78
2022/01/18 03:14:06;;;;;;;20.53;18.53;;;4.10;99.90;;;;;;5003177;28;20284;-77
2022/01/18 03:16:33;;;;;;;19.77;18.07;;;4.00;99.90;;;;;;5024397;28;20202;-75
2022/01/18 03:19:00;;;;;;;20.20;18.60;;;4.00;99.90;;;;;;5004267;28;20202;-76
2022/01/18 03:21:27;;;;;;;19.67;17.87;;;4.00;99.90;;;;;;5024303;28;20216;-77
2022/01/18 03:24:09;;;;;;;21.37;19.40;;;4.00;99.90;;;;;;5005637;28;20207;-77
2022/01/18 03:28:04;;;;;;;20.13;18.40;;;4.00;99.90;;;;;;4996539;28;20199;-76
2022/01/18 03:29:24;;;;;;;20.57;18.60;;;4.00;99.90;;;;;;5001755;28;20196;-76
2022/01/18 03:31:51;;;;;;;20.77;18.90;;;3.90;99.90;;;;;;5020288;28;20231;-76
2022/01/18 03:34:18;;;;;;;22.20;20.20;;;4.00;99.90;;;;;;5005177;28;20212;-77
2022/01/18 03:36:46;;;;;;;20.07;18.23;;;4.00;99.90;;;;;;5021194;28;20189;-76
2022/01/18 03:39:13;;;;;;;22.33;20.30;;;4.00;99.90;;;;;;5023254;28;20479;-76
2022/01/18 03:41:41;;;;;;;21.33;19.37;;;4.00;99.90;;;;;;5024660;28;20225;-79
2022/01/18 03:44:08;;;;;;;20.90;19.17;;;3.90;99.90;;;;;;4993085;28;20220;-81
2022/01/18 03:46:36;;;;;;;22.23;20.17;;;4.00;99.90;;;;;;5024042;28;20200;-78
2022/01/18 03:49:05;;;;;;;20.20;18.37;;;4.00;99.90;;;;;;5015853;28;20665;-78
2022/01/18 03:51:32;;;;;;;20.83;19.03;;;4.00;99.90;;;;;;5001154;28;20193;-78
2022/01/18 03:53:59;;;;;;;21.27;19.33;;;4.00;99.90;;;;;;5016174;28;20204;-79
2022/01/18 03:56:26;;;;;;;21.37;19.43;;;4.00;99.90;;;;;;5022862;28;20203;-77
2022/01/18 03:58:54;;;;;;;20.83;19.03;;;4.00;99.90;;;;;;5006021;28;20205;-80
2022/01/18 04:01:21;;;;;;;20.80;18.80;;;4.00;99.90;;;;;;5007268;28;20224;-80
2022/01/18 04:03:48;;;;;;;20.13;18.43;;;4.00;99.90;;;;;;5005880;28;20204;-78
2022/01/18 04:06:15;;;;;;;19.40;17.80;;;4.10;99.90;;;;;;5024991;28;20576;-79
2022/01/18 04:08:42;;;;;;;20.23;18.53;;;4.00;99.90;;;;;;5012875;28;20204;-79
2022/01/18 04:11:09;;;;;;;20.57;18.80;;;4.00;99.90;;;;;;5023133;28;20208;-79
2022/01/18 04:13:36;;;;;;;20.93;18.93;;;4.00;99.90;;;;;;5020076;28;20228;-78
2022/01/18 04:16:05;;;;;;;20.77;18.93;;;4.00;99.90;;;;;;5014001;28;20192;-78
2022/01/18 04:18:46;;;;;;;21.03;19.10;;;4.10;99.90;;;;;;4995398;28;20204;-80
2022/01/18 04:26:56;;;;;;;21.07;19.17;;;4.10;99.90;;;;;;5026067;28;20195;-79
2022/01/18 04:29:24;;;;;;;23.20;21.10;;;4.10;99.90;;;;;;5009439;28;20208;-79
2022/01/18 04:31:53;;;;;;;22.77;20.83;;;4.00;99.90;;;;;;5018173;28;20208;-79
2022/01/18 04:34:20;;;;;;;21.90;19.93;;;4.00;99.90;;;;;;5031542;28;20192;-79
2022/01/18 04:36:49;;;;;;;21.10;19.30;;;4.00;99.90;;;;;;5030039;28;20599;-80
2022/01/18 04:39:16;;;;;;;21.23;19.37;;;4.00;99.90;;;;;;5011794;28;20219;-78
2022/01/18 04:41:45;;;;;;;21.43;19.53;;;4.10;99.90;;;;;;5026660;28;20215;-79
2022/01/18 04:49:38;;;;;;;21.57;19.50;;;4.00;99.90;;;;;;4999429;28;20520;-78
2022/01/18 04:52:06;;;;;;;21.43;19.43;;;4.00;99.90;;;;;;5013259;28;20216;-79
2022/01/18 04:54:33;;;;;;;21.30;19.43;;;4.00;99.90;;;;;;5033834;28;20657;-79
2022/01/18 04:59:44;;;;;;;22.73;20.63;;;4.00;99.90;;;;;;5030102;28;20185;-80
2022/01/18 05:02:12;;;;;;;23.00;20.93;;;4.00;99.90;;;;;;5013665;28;20223;-78
2022/01/18 05:04:40;;;;;;;22.47;20.47;;;4.00;99.90;;;;;;5010144;28;20204;-79
2022/01/18 05:07:09;;;;;;;21.47;19.60;;;4.00;99.90;;;;;;5024769;28;20239;-79
2022/01/18 05:09:36;;;;;;;21.57;19.67;;;4.00;99.90;;;;;;5012311;28;20197;-78
2022/01/18 05:12:08;;;;;;;21.53;19.63;;;4.00;99.90;;;;;;5028895;28;20217;-79
2022/01/18 05:14:36;;;;;;;21.03;19.23;;;4.00;99.90;;;;;;5014208;28;20313;-79
2022/01/18 05:17:19;;;;;;;22.20;20.20;;;4.00;99.90;;;;;;5030011;28;20197;-79
2022/01/18 05:20:01;;;;;;;20.33;18.70;;;4.00;99.90;;;;;;5012988;28;20290;-80
2022/01/18 05:25:12;;;;;;;21.67;19.77;;;3.90;99.90;;;;;;5013320;28;20196;-80
2022/01/18 05:27:39;;;;;;;22.47;20.37;;;3.90;99.90;;;;;;5026570;28;20676;-79
2022/01/18 05:30:07;;;;;;;22.80;20.40;;;3.90;99.90;;;;;;5025546;28;20196;-78
2022/01/18 05:32:34;;;;;;;22.23;20.03;;;4.00;99.90;;;;;;5011564;28;20576;-80
2022/01/18 05:35:02;;;;;;;21.67;19.77;;;3.90;99.90;;;;;;5026208;28;20197;-80
2022/01/18 05:37:29;;;;;;;21.10;19.27;;;3.90;99.90;;;;;;5009434;28;20287;-79
2022/01/18 05:39:56;;;;;;;23.23;21.10;;;3.90;99.90;;;;;;5001158;28;20219;-79
2022/01/18 05:42:23;;;;;;;22.33;20.33;;;3.90;99.90;;;;;;5023964;28;20294;-79
2022/01/18 05:44:50;;;;;;;21.43;19.53;;;3.90;99.90;;;;;;5032056;28;20235;-77
2022/01/18 05:47:17;;;;;;;22.40;20.37;;;3.90;99.90;;;;;;5024485;28;20245;-78
2022/01/18 05:49:44;;;;;;;20.63;18.97;;;3.90;99.90;;;;;;5025345;28;20198;-79
2022/01/18 05:52:12;;;;;;;22.80;20.90;;;3.90;99.90;;;;;;5022046;28;20775;-79
2022/01/18 05:54:39;;;;;;;22.63;20.60;;;3.90;99.90;;;;;;5025146;28;20181;-79
2022/01/18 05:57:06;;;;;;;23.43;21.03;;;3.90;99.90;;;;;;5022848;28;20251;-77
2022/01/18 05:59:38;;;;;;;21.97;20.00;;;3.90;99.90;;;;;;5023378;28;20195;-77
2022/01/18 06:02:16;;;;;;;22.20;20.20;;;4.00;99.90;;;;;;5005875;28;20266;-77
2022/01/18 06:07:30;;;;;;;21.17;19.27;;;4.00;99.90;;;;;;4992161;28;20207;-76
2022/01/18 06:09:57;;;;;;;21.50;19.47;;;4.00;99.90;;;;;;5018315;28;20200;-77
2022/01/18 06:12:25;;;;;;;21.80;19.70;;;4.00;99.90;;;;;;5007206;28;20625;-76
2022/01/18 06:14:51;;;;;;;21.63;19.73;;;3.90;99.90;;;;;;5004809;28;20235;-77
2022/01/18 06:17:19;;;;;;;20.87;19.07;;;3.90;99.90;;;;;;5024270;28;20205;-76
2022/01/18 06:19:45;;;;;;;22.97;20.87;;;3.90;99.90;;;;;;5022980;28;20192;-76
2022/01/18 06:22:12;;;;;;;21.43;19.43;;;3.90;99.90;;;;;;5006539;28;20597;-76
2022/01/18 06:24:40;;;;;;;24.07;21.77;;;3.90;99.90;;;;;;5003346;28;20203;-76
2022/01/18 06:27:08;;;;;;;22.03;20.03;;;3.90;99.90;;;;;;5000429;28;20197;-76
2022/01/18 06:29:36;;;;;;;23.47;21.30;;;3.90;99.90;;;;;;5003260;28;20274;-76
2022/01/18 06:32:05;;;;;;;23.27;21.07;;;3.90;99.90;;;;;;5021748;28;20215;-77
2022/01/18 06:34:32;;;;;;;23.10;21.00;;;3.90;99.90;;;;;;5014642;28;20193;-76
2022/01/18 06:36:59;;;;;;;22.27;20.33;;;3.90;99.90;;;;;;5017826;28;20673;-76
2022/01/18 06:39:26;;;;;;;23.80;21.60;;;3.90;99.90;;;;;;5006975;28;20209;-76
2022/01/18 06:41:54;;;;;;;23.47;20.70;;;3.90;99.90;;;;;;5005395;28;20297;-77
2022/01/18 06:44:22;;;;;;;23.93;21.70;;;3.90;99.90;;;;;;5019145;28;20208;-77
2022/01/18 06:46:49;;;;;;;22.87;20.83;;;3.90;99.90;;;;;;5001232;28;20196;-76
2022/01/18 06:49:16;;;;;;;22.50;20.40;;;3.90;99.90;;;;;;5022897;28;20193;-76
2022/01/18 06:51:43;;;;;;;22.20;20.10;;;3.90;99.90;;;;;;5003722;28;20715;-76
2022/01/18 06:54:14;;;;;;;22.80;20.67;;;3.90;99.90;;;;;;5022352;28;20200;-76
2022/01/18 06:56:45;;;;;;;22.67;20.60;;;3.90;99.90;;;;;;5001743;28;20210;-76
2022/01/18 06:59:13;;;;;;;24.47;22.17;;;3.90;99.90;;;;;;5002184;28;20200;-76
2022/01/18 07:01:40;;;;;;;22.77;20.70;;;3.90;99.90;;;;;;5022142;28;20273;-77
2022/01/18 07:04:07;;;;;;;22.50;20.47;;;3.90;99.90;;;;;;5002246;28;20383;-78
2022/01/18 07:06:35;;;;;;;22.10;20.00;;;4.00;99.90;;;;;;5006591;28;20194;-76
2022/01/18 07:09:03;;;;;;;22.97;20.77;;;4.00;99.90;;;;;;5022295;28;20467;-79
2022/01/18 07:11:30;;;;;;;22.97;20.97;;;4.00;99.90;;;;;;5002273;28;20251;-77
2022/01/18 07:13:57;;;;;;;22.83;20.70;;;4.00;99.90;;;;;;5004772;28;20200;-77
2022/01/18 07:16:25;;;;;;;21.97;19.97;;;4.00;99.90;;;;;;5021516;28;20607;-77
2022/01/18 07:18:52;;;;;;;23.63;21.53;;;4.00;99.90;;;;;;5007046;28;20656;-77
2022/01/18 07:21:19;;;;;;;24.10;21.90;;;4.00;99.90;;;;;;5020161;28;20212;-76
2022/01/18 07:23:46;;;;;;;21.90;20.00;;;4.00;99.90;;;;;;5022320;28;20188;-76
2022/01/18 07:26:13;;;;;;;24.67;22.37;;;4.00;99.90;;;;;;5022942;28;20189;-79
2022/01/18 07:28:39;;;;;;;24.63;22.23;;;4.00;99.90;;;;;;5023871;28;20674;-78
2022/01/18 07:31:06;;;;;;;25.53;23.17;;;4.00;99.90;;;;;;5024126;28;20211;-78
2022/01/18 07:33:36;;;;;;;25.43;22.93;;;3.90;99.90;;;;;;5001288;28;20219;-76
2022/01/18 07:36:03;;;;;;;27.23;24.63;;;4.00;99.90;;;;;;5017068;28;20196;-75
2022/01/18 07:38:29;;;;;;;26.97;24.30;;;3.90;99.90;;;;;;5021164;28;20203;-76
2022/01/18 07:40:56;;;;;;;25.93;23.43;;;3.90;99.90;;;;;;5021384;28;20203;-79
2022/01/18 07:43:23;;;;;;;25.77;23.20;;;4.00;99.90;;;;;;5007790;28;20251;-78
2022/01/18 07:45:51;;;;;;;25.80;23.20;;;4.00;99.90;;;;;;5005737;28;20210;-78
2022/01/18 07:48:21;;;;;;;26.20;23.60;;;4.00;99.90;;;;;;5001162;28;20216;-75
2022/01/18 07:50:51;;;;;;;27.17;24.27;;;4.00;99.90;;;;;;5002727;28;20255;-78
2022/01/18 07:53:18;;;;;;;27.37;24.57;;;4.00;99.90;;;;;;5021694;28;20562;-76
2022/01/18 07:55:44;;;;;;;26.33;23.80;;;4.00;99.90;;;;;;5020437;28;20193;-78
2022/01/18 07:58:11;;;;;;;27.10;24.23;;;4.00;99.90;;;;;;5004310;28;20219;-78
2022/01/18 08:00:38;;;;;;;26.70;23.90;;;4.00;99.90;;;;;;5000807;28;20594;-78
2022/01/18 08:03:05;;;;;;;28.23;23.77;;;4.00;99.90;;;;;;4998822;28;20216;-78
2022/01/18 08:05:32;;;;;;;26.87;24.00;;;4.00;99.90;;;;;;5007531;28;20200;-78
2022/01/18 08:08:00;;;;;;;26.60;23.80;;;4.00;99.90;;;;;;5020491;28;20201;-77
2022/01/18 08:10:30;;;;;;;28.17;25.23;;;4.10;99.90;;;;;;5005879;28;20196;-78
2022/01/18 08:12:57;;;;;;;28.73;25.23;;;4.10;99.90;;;;;;5002575;28;20209;-79
2022/01/18 08:15:25;;;;;;;27.87;24.97;;;4.10;99.90;;;;;;5005646;28;20196;-79
2022/01/18 08:17:54;;;;;;;30.43;25.10;;;4.10;99.90;;;;;;5003814;28;20203;-77
2022/01/18 08:20:21;;;;;;;27.83;24.90;;;4.20;99.90;;;;;;5017511;28;20200;-78
2022/01/18 08:22:48;;;;;;;27.10;24.27;;;4.20;99.90;;;;;;5001142;28;20243;-78
2022/01/18 08:25:17;;;;;;;28.00;25.00;;;4.20;99.90;;;;;;5021621;28;20204;-78
2022/01/18 08:27:46;;;;;;;28.00;25.10;;;4.20;99.90;;;;;;5004144;28;20200;-78
2022/01/18 08:30:13;;;;;;;27.27;24.40;;;4.30;99.90;;;;;;5002956;28;20192;-78
2022/01/18 08:32:40;;;;;;;27.27;24.40;;;4.40;99.90;;;;;;5002402;28;20577;-79
2022/01/18 08:35:09;;;;;;;27.20;24.40;;;4.40;99.90;;;;;;5020595;28;20214;-78
2022/01/18 08:37:35;;;;;;;31.10;26.67;;;4.50;99.90;;;;;;5017536;28;20234;-78
2022/01/18 08:40:03;;;;;;;30.60;25.80;;;4.50;99.90;;;;;;5016451;28;20200;-78
2022/01/18 08:42:32;;;;;;;27.20;24.60;;;4.60;99.90;;;;;;5012318;28;20216;-77
2022/01/18 08:44:59;;;;;;;28.17;25.27;;;4.70;99.90;;;;;;5020074;28;20181;-78
2022/01/18 08:47:26;;;;;;;28.53;25.53;;;4.70;99.90;;;;;;5006456;28;20576;-79
2022/01/18 08:49:53;;;;;;;30.67;27.37;;;4.80;99.90;;;;;;5007378;28;20201;-78
2022/01/18 08:52:20;;;;;;;34.40;26.27;;;4.80;99.90;;;;;;5023632;28;20212;-77
2022/01/18 08:54:47;;;;;;;30.23;26.20;;;4.80;99.90;;;;;;5003898;28;20203;-77
2022/01/18 08:57:16;;;;;;;29.97;26.03;;;4.90;99.90;;;;;;5022217;28;20196;-78
2022/01/18 08:59:45;;;;;;;30.27;25.83;;;4.90;99.90;;;;;;5021913;28;20205;-78
2022/01/18 09:02:13;;;;;;;29.73;26.53;;;5.00;99.90;;;;;;5022266;28;20224;-78
2022/01/18 09:04:40;;;;;;;29.33;26.27;;;5.00;99.90;;;;;;5002386;28;20207;-78
2022/01/18 09:07:10;;;;;;;27.97;24.87;;;5.10;99.90;;;;;;5023506;28;20223;-76
2022/01/18 09:09:39;;;;;;;30.03;25.67;;;5.10;99.90;;;;;;5007663;28;20575;-75
2022/01/18 09:12:07;;;;;;;28.57;25.60;;;5.10;99.90;;;;;;5016933;28;20705;-76
2022/01/18 09:14:34;;;;;;;29.30;25.53;;;5.10;99.90;;;;;;5016844;28;20204;-76
2022/01/18 09:17:03;;;;;;;29.30;25.90;;;5.10;99.90;;;;;;5034622;28;20188;-76
2022/01/18 09:19:30;;;;;;;32.03;27.83;;;5.10;99.90;;;;;;5014796;28;20211;-75
2022/01/18 09:21:59;;;;;;;32.10;26.40;;;5.10;99.90;;;;;;5004974;28;20231;-76
2022/01/18 09:24:26;;;;;;;33.03;27.40;;;5.10;99.90;;;;;;5008190;28;20224;-75
2022/01/18 09:26:53;;;;;;;30.53;26.57;;;5.10;99.90;;;;;;5020481;28;20666;-78
2022/01/18 09:29:21;;;;;;;29.33;26.20;;;5.20;99.90;;;;;;5007497;28;20204;-78
2022/01/18 09:31:48;;;;;;;30.40;27.13;;;5.20;99.90;;;;;;5006988;28;20217;-78
2022/01/18 09:34:16;;;;;;;29.00;25.90;;;5.20;99.90;;;;;;5008619;28;20189;-78
2022/01/18 09:36:43;;;;;;;31.00;26.77;;;5.20;99.90;;;;;;5008360;28;20208;-78
2022/01/18 09:39:10;;;;;;;31.10;26.70;;;5.20;99.90;;;;;;5027205;28;20196;-78
2022/01/18 09:41:40;;;;;;;30.17;26.40;;;5.30;99.90;;;;;;5024555;28;20715;-78
2022/01/18 09:44:09;;;;;;;31.70;27.93;;;5.30;99.90;;;;;;5015762;28;20236;-78
2022/01/18 09:46:36;;;;;;;33.30;28.17;;;5.30;99.90;;;;;;5008183;28;20196;-78
2022/01/18 09:49:05;;;;;;;30.93;27.83;;;5.30;99.90;;;;;;5008140;28;20214;-78
2022/01/18 09:51:34;;;;;;;30.17;27.07;;;5.30;99.90;;;;;;5028526;28;20669;-78
2022/01/18 09:54:01;;;;;;;30.83;27.73;;;5.40;99.90;;;;;;5024451;28;20579;-78
2022/01/18 09:56:28;;;;;;;29.70;26.57;;;5.50;99.90;;;;;;5006274;28;20246;-77
2022/01/18 09:58:55;;;;;;;31.40;27.43;;;5.40;99.90;;;;;;5025420;28;20545;-78
2022/01/18 10:01:22;;;;;;;28.03;25.17;;;5.50;99.90;;;;;;5003438;28;20313;-78
2022/01/18 10:07:37;;;;;;;27.40;24.53;;;5.70;99.90;;;;;;5023601;28;20176;-78
2022/01/18 10:10:07;;;;;;;28.37;25.30;;;5.70;99.90;;;;;;5013136;28;20273;-78
2022/01/18 10:12:33;;;;;;;28.13;25.10;;;5.80;99.90;;;;;;5008318;28;20310;-78
2022/01/18 10:15:02;;;;;;;29.73;26.33;;;5.70;99.90;;;;;;5022617;28;20252;-78
2022/01/18 10:17:31;;;;;;;31.83;25.70;;;5.70;99.90;;;;;;5013922;28;20196;-78
2022/01/18 10:20:04;;;;;;;27.27;24.33;;;5.70;99.90;;;;;;5004666;28;20211;-78
2022/01/18 10:22:40;;;;;;;28.43;25.43;;;5.90;99.90;;;;;;5022189;28;20583;-78
2022/01/18 10:25:16;;;;;;;27.93;24.80;;;6.00;99.90;;;;;;5005927;28;20200;-77
2022/01/18 10:27:47;;;;;;;27.90;24.30;;;6.00;99.90;;;;;;5001813;28;20200;-77
2022/01/18 10:30:21;;;;;;;28.23;25.00;;;6.10;99.90;;;;;;5023769;28;20201;-77
2022/01/18 10:33:02;;;;;;;27.43;24.47;;;6.10;99.90;;;;;;5003311;28;20225;-78
2022/01/18 10:35:29;;;;;;;27.50;24.60;;;6.20;99.90;;;;;;4997417;28;20201;-79
2022/01/18 10:37:56;;;;;;;26.77;23.93;;;6.30;99.90;;;;;;5004893;28;20286;-78
2022/01/18 10:40:26;;;;;;;26.00;23.17;;;6.20;99.90;;;;;;5008997;28;20212;-79
2022/01/18 10:42:54;;;;;;;25.40;22.83;;;6.20;99.90;;;;;;5027239;28;20579;-77
2022/01/18 10:45:27;;;;;;;26.47;23.67;;;6.20;99.90;;;;;;5015218;28;20201;-78
2022/01/18 10:47:59;;;;;;;28.27;24.83;;;6.20;99.90;;;;;;5009609;28;20204;-79
2022/01/18 10:50:31;;;;;;;28.17;23.70;;;6.20;99.90;;;;;;5017181;28;20666;-81
2022/01/18 10:53:11;;;;;;;26.87;24.07;;;6.10;99.90;;;;;;5024152;28;20209;-78
2022/01/18 10:55:40;;;;;;;26.37;23.23;;;6.10;99.90;;;;;;5016922;28;20247;-79
2022/01/18 10:58:10;;;;;;;26.07;23.30;;;6.10;99.90;;;;;;5023421;28;20685;-79
2022/01/18 11:00:38;;;;;;;24.87;22.20;;;6.10;99.90;;;;;;5023371;28;20198;-79
2022/01/18 11:03:06;;;;;;;27.03;24.13;;;6.20;99.90;;;;;;5008801;28;20308;-79
2022/01/18 11:05:35;;;;;;;27.03;24.13;;;6.20;99.90;;;;;;5022572;28;20718;-78
2022/01/18 11:08:04;;;;;;;24.43;21.80;;;6.20;99.90;;;;;;5003057;28;20212;-79
2022/01/18 11:10:34;;;;;;;22.53;20.43;;;6.20;99.90;;;;;;5023290;28;20251;-80
2022/01/18 11:13:07;;;;;;;23.60;21.20;;;6.30;99.90;;;;;;5005768;28;20688;-80
2022/01/18 11:15:36;;;;;;;25.37;22.87;;;6.30;99.90;;;;;;5018401;28;20203;-77
2022/01/18 11:18:08;;;;;;;26.90;23.83;;;6.30;99.90;;;;;;5023911;28;20281;-76
2022/01/18 11:20:38;;;;;;;27.93;22.40;;;6.20;99.90;;;;;;5020001;28;20224;-77
2022/01/18 11:23:06;;;;;;;25.90;23.10;;;6.20;99.90;;;;;;5018726;28;20225;-77
2022/01/18 11:25:36;;;;;;;28.33;25.23;;;6.20;99.90;;;;;;5028565;28;20238;-78
2022/01/18 11:28:06;;;;;;;28.87;25.60;;;6.00;99.90;;;;;;5020870;28;20309;-77
2022/01/18 11:30:37;;;;;;;27.53;23.77;;;6.00;99.90;;;;;;5018410;28;20283;-77
2022/01/18 11:33:07;;;;;;;24.90;21.87;;;5.80;99.90;;;;;;5022930;28;20224;-77
2022/01/18 11:35:45;;;;;;;25.27;22.53;;;5.80;99.90;;;;;;5016967;28;20243;-76
2022/01/18 11:38:20;;;;;;;27.27;24.00;;;5.70;99.90;;;;;;5004905;28;20204;-76
2022/01/18 11:40:50;;;;;;;28.43;24.77;;;5.70;99.90;;;;;;5004541;28;20199;-76
2022/01/18 11:43:35;;;;;;;26.87;23.37;;;5.70;99.90;;;;;;5018902;28;20602;-78
2022/01/18 11:46:19;;;;;;;28.97;24.50;;;5.70;99.90;;;;;;5001420;28;20201;-76
2022/01/18 11:48:47;;;;;;;26.10;22.60;;;5.80;99.90;;;;;;5015136;28;20200;-77
2022/01/18 11:51:18;;;;;;;28.67;23.30;;;5.90;99.90;;;;;;5022081;28;20197;-78
2022/01/18 11:53:54;;;;;;;23.67;21.27;;;6.00;99.90;;;;;;5024006;28;20189;-76
2022/01/18 11:56:34;;;;;;;23.80;21.40;;;6.00;99.90;;;;;;5020873;28;20243;-76
2022/01/18 11:59:15;;;;;;;24.47;21.97;;;6.10;99.90;;;;;;5020631;28;20196;-77
2022/01/18 12:01:50;;;;;;;23.87;21.47;;;6.20;99.90;;;;;;4993611;28;20236;-76
2022/01/18 12:05:04;;;;;;;26.77;22.50;;;6.40;99.90;;;;;;5021409;28;20211;-76
2022/01/18 12:07:58;;;;;;;23.53;20.87;;;6.50;99.90;;;;;;4998834;28;20217;-76
2022/01/18 12:10:46;;;;;;;22.27;19.97;;;6.50;99.90;;;;;;5005471;28;20209;-76
2022/01/18 12:13:24;;;;;;;24.10;20.73;;;6.50;99.90;;;;;;5005120;28;20437;-76
2022/01/18 12:15:56;;;;;;;22.97;20.73;;;6.60;99.90;;;;;;5003287;28;20192;-76
2022/01/18 12:18:25;;;;;;;23.77;20.00;;;6.60;99.90;;;;;;4999356;28;20209;-76
2022/01/18 12:20:53;;;;;;;22.30;20.00;;;6.60;99.90;;;;;;5017684;28;20403;-75
2022/01/18 12:23:21;;;;;;;23.03;20.00;;;6.70;99.90;;;;;;5002027;28;20707;-75
2022/01/18 12:25:58;;;;;;;20.93;18.87;;;6.80;99.90;;;;;;5000778;28;20282;-76
2022/01/18 12:29:20;;;;;;;21.00;18.80;;;6.80;99.90;;;;;;5005523;28;20236;-76
2022/01/18 12:35:02;;;;;;;19.83;17.87;;;6.90;99.90;;;;;;5015124;28;20649;-76
2022/01/18 12:37:37;;;;;;;18.77;17.07;;;6.90;99.90;;;;;;5011514;28;20198;-76
2022/01/18 12:40:11;;;;;;;18.07;16.37;;;6.90;99.90;;;;;;5020166;28;20247;-76
2022/01/18 12:45:30;;;;;;;19.40;17.33;;;7.00;99.90;;;;;;5010688;28;20209;-77
2022/01/18 12:48:00;;;;;;;18.53;16.70;;;6.90;99.90;;;;;;5001483;28;20268;-77
2022/01/18 12:50:31;;;;;;;18.27;16.50;;;6.90;99.90;;;;;;5025998;28;20209;-77
2022/01/18 12:52:59;;;;;;;19.87;17.93;;;6.90;99.90;;;;;;5009511;28;20281;-76
2022/01/18 12:55:33;;;;;;;19.67;17.87;;;6.80;99.90;;;;;;5009820;28;20609;-78
2022/01/18 12:58:02;;;;;;;18.03;16.33;;;6.80;99.90;;;;;;5022785;28;20202;-76
2022/01/18 13:00:29;;;;;;;18.57;16.87;;;6.80;99.90;;;;;;4997953;28;20241;-76
2022/01/18 13:03:00;;;;;;;19.30;17.50;;;6.90;99.90;;;;;;5023323;28;20635;-76
2022/01/18 13:05:38;;;;;;;19.97;16.60;;;6.80;99.90;;;;;;5025838;28;20249;-76
2022/01/18 13:08:05;;;;;;;18.23;16.57;;;6.90;99.90;;;;;;5024790;28;20728;-77
2022/01/18 13:10:37;;;;;;;17.90;16.30;;;6.90;99.90;;;;;;5002957;28;20199;-76
2022/01/18 13:13:05;;;;;;;18.10;16.40;;;6.80;99.90;;;;;;5019731;28;20221;-76
2022/01/18 13:15:48;;;;;;;18.17;16.43;;;6.80;99.90;;;;;;5023059;28;20196;-77
2022/01/18 13:24:01;;;;;;;18.13;16.33;;;6.90;99.90;;;;;;5004153;28;20217;-76
2022/01/18 13:26:31;;;;;;;18.30;16.50;;;6.90;99.90;;;;;;5015014;28;20257;-76
2022/01/18 13:29:11;;;;;;;17.87;16.27;;;6.90;99.90;;;;;;5005356;28;20206;-77
2022/01/18 13:31:39;;;;;;;17.23;15.83;;;6.80;99.90;;;;;;5005203;28;20225;-77
2022/01/18 13:34:11;;;;;;;18.03;16.33;;;6.80;99.90;;;;;;5005750;28;20636;-77
2022/01/18 13:36:49;;;;;;;17.43;15.93;;;6.80;99.90;;;;;;5007847;28;20206;-77
2022/01/18 13:39:31;;;;;;;17.17;15.50;;;6.80;99.90;;;;;;5010138;28;20203;-77
2022/01/18 13:41:59;;;;;;;17.40;15.90;;;6.80;99.90;;;;;;5008638;28;20229;-77
2022/01/18 13:44:25;;;;;;;18.07;16.57;;;6.70;99.90;;;;;;5019426;28;20209;-76
2022/01/18 13:46:52;;;;;;;17.63;15.93;;;6.80;99.90;;;;;;5019689;28;20194;-76
2022/01/18 13:49:25;;;;;;;16.23;14.83;;;6.60;99.90;;;;;;5004911;28;20202;-76
2022/01/18 13:52:04;;;;;;;16.57;15.27;;;6.50;99.90;;;;;;5022413;28;20225;-76